sensor_id;sensor_type;location;lat;lon;timestamp;pressure;altitude;pressure_sealevel;temperature;humidity
39435;BME280;66825;51.880;-0.518;2023-03-03T00:00:36;101809.81;;;15.62;38.51
39435;BME280;66825;51.880;-0.518;2023-03-03T00:03:05;101701.13;;;14.90;38.44
39435;BME280;66825;51.880;-0.518;2023-03-03T00:05:32;101808.34;;;15.54;38.44
39435;BME280;66825;51.880;-0.518;2023-03-03T00:07:59;101790.31;;;15.43;38.42
39435;BME280;66825;51.880;-0.518;2023-03-03T00:10:24;101822.03;;;15.60;38.45
39435;BME280;66825;51.880;-0.518;2023-03-03T00:12:50;101826.88;;;15.57;38.35
39435;BME280;66825;51.880;-0.518;2023-03-03T00:15:19;101804.16;;;15.42;38.70
39435;BME280;66825;51.880;-0.518;2023-03-03T00:17:45;101839.63;;;15.57;38.45
39435;BME280;66825;51.880;-0.518;2023-03-03T00:22:51;101844.50;;;15.55;38.41
39435;BME280;66825;51.880;-0.518;2023-03-03T00:25:29;101803.50;;;15.34;38.45
39435;BME280;66825;51.880;-0.518;2023-03-03T00:27:55;101815.81;;;15.42;38.43
39435;BME280;66825;51.880;-0.518;2023-03-03T00:30:26;101835.53;;;15.54;38.41
39435;BME280;66825;51.880;-0.518;2023-03-03T00:32:54;101714.25;;;14.76;38.34
39435;BME280;66825;51.880;-0.518;2023-03-03T00:35:31;101832.25;;;15.52;38.56
39435;BME280;66825;51.880;-0.518;2023-03-03T00:38:17;101822.06;;;15.43;38.69
39435;BME280;66825;51.880;-0.518;2023-03-03T00:40:43;101833.56;;;15.50;38.54
39435;BME280;66825;51.880;-0.518;2023-03-03T00:43:24;101814.91;;;15.36;38.56
39435;BME280;66825;51.880;-0.518;2023-03-03T00:45:52;101839.25;;;15.48;38.61
39435;BME280;66825;51.880;-0.518;2023-03-03T00:51:10;101809.44;;;15.31;38.56
39435;BME280;66825;51.880;-0.518;2023-03-03T00:53:40;101853.09;;;15.47;38.49
39435;BME280;66825;51.880;-0.518;2023-03-03T00:56:06;101798.44;;;15.21;38.64
39435;BME280;66825;51.880;-0.518;2023-03-03T00:58:31;101809.88;;;15.23;38.43
39435;BME280;66825;51.880;-0.518;2023-03-03T01:00:57;101826.38;;;15.38;38.57
39435;BME280;66825;51.880;-0.518;2023-03-03T01:03:25;101819.16;;;15.27;38.75
39435;BME280;66825;51.880;-0.518;2023-03-03T01:05:51;101840.00;;;15.44;38.56
39435;BME280;66825;51.880;-0.518;2023-03-03T01:08:17;101832.59;;;15.39;38.65
39435;BME280;66825;51.880;-0.518;2023-03-03T01:10:48;101728.31;;;14.73;38.62
39435;BME280;66825;51.880;-0.518;2023-03-03T01:13:29;101798.69;;;15.19;38.68
39435;BME280;66825;51.880;-0.518;2023-03-03T01:15:56;101808.47;;;15.20;38.60
39435;BME280;66825;51.880;-0.518;2023-03-03T01:18:22;101836.97;;;15.40;38.78
39435;BME280;66825;51.880;-0.518;2023-03-03T01:20:47;101843.22;;;15.40;38.60
39435;BME280;66825;51.880;-0.518;2023-03-03T01:23:13;101838.88;;;15.39;38.64
39435;BME280;66825;51.880;-0.518;2023-03-03T01:25:38;101840.38;;;15.30;38.76
39435;BME280;66825;51.880;-0.518;2023-03-03T01:28:04;101759.72;;;14.86;38.64
39435;BME280;66825;51.880;-0.518;2023-03-03T01:30:30;101824.59;;;15.27;38.76
39435;BME280;66825;51.880;-0.518;2023-03-03T01:32:56;101844.78;;;15.36;38.47
39435;BME280;66825;51.880;-0.518;2023-03-03T01:35:21;101837.91;;;15.29;38.57
39435;BME280;66825;51.880;-0.518;2023-03-03T01:37:47;101852.13;;;15.36;38.56
39435;BME280;66825;51.880;-0.518;2023-03-03T01:40:21;101738.25;;;14.68;38.45
39435;BME280;66825;51.880;-0.518;2023-03-03T01:42:47;101847.78;;;15.35;38.60
39435;BME280;66825;51.880;-0.518;2023-03-03T01:45:14;101856.19;;;15.33;38.69
39435;BME280;66825;51.880;-0.518;2023-03-03T01:47:46;101648.50;;;14.13;38.72
39435;BME280;66825;51.880;-0.518;2023-03-03T01:50:20;101806.69;;;15.09;38.56
39435;BME280;66825;51.880;-0.518;2023-03-03T01:52:48;101853.69;;;15.32;38.72
39435;BME280;66825;51.880;-0.518;2023-03-03T01:55:22;101844.16;;;15.29;38.84
39435;BME280;66825;51.880;-0.518;2023-03-03T01:57:56;101824.69;;;15.15;38.92
39435;BME280;66825;51.880;-0.518;2023-03-03T02:00:23;101825.19;;;15.12;38.80
39435;BME280;66825;51.880;-0.518;2023-03-03T02:02:50;101841.13;;;15.25;38.72
39435;BME280;66825;51.880;-0.518;2023-03-03T02:05:16;101850.66;;;15.28;38.65
39435;BME280;66825;51.880;-0.518;2023-03-03T02:07:43;101836.22;;;15.22;38.77
39435;BME280;66825;51.880;-0.518;2023-03-03T02:10:15;101839.25;;;15.26;38.61
39435;BME280;66825;51.880;-0.518;2023-03-03T02:15:20;101851.75;;;15.27;38.34
39435;BME280;66825;51.880;-0.518;2023-03-03T02:17:48;101720.28;;;14.44;38.71
39435;BME280;66825;51.880;-0.518;2023-03-03T02:28:22;101849.53;;;15.24;38.87
39435;BME280;66825;51.880;-0.518;2023-03-03T02:30:49;101821.34;;;15.08;39.03
39435;BME280;66825;51.880;-0.518;2023-03-03T02:33:14;101857.66;;;15.24;38.85
39435;BME280;66825;51.880;-0.518;2023-03-03T02:35:40;101842.38;;;15.18;38.83
39435;BME280;66825;51.880;-0.518;2023-03-03T02:40:41;101824.06;;;15.08;38.92
39435;BME280;66825;51.880;-0.518;2023-03-03T02:43:08;101705.47;;;14.35;38.83
39435;BME280;66825;51.880;-0.518;2023-03-03T02:45:41;101848.38;;;15.20;38.81
39435;BME280;66825;51.880;-0.518;2023-03-03T02:48:07;101848.63;;;15.18;38.67
39435;BME280;66825;51.880;-0.518;2023-03-03T02:50:32;101853.81;;;15.20;38.79
39435;BME280;66825;51.880;-0.518;2023-03-03T02:52:58;101849.47;;;15.19;39.02
39435;BME280;66825;51.880;-0.518;2023-03-03T02:55:23;101859.47;;;15.18;38.99
39435;BME280;66825;51.880;-0.518;2023-03-03T02:57:49;101855.97;;;15.18;38.91
39435;BME280;66825;51.880;-0.518;2023-03-03T03:00:14;101849.94;;;15.16;38.97
39435;BME280;66825;51.880;-0.518;2023-03-03T03:02:40;101838.69;;;15.07;39.05
39435;BME280;66825;51.880;-0.518;2023-03-03T03:05:06;101834.81;;;15.03;38.84
39435;BME280;66825;51.880;-0.518;2023-03-03T03:07:33;101857.84;;;15.17;38.84
39435;BME280;66825;51.880;-0.518;2023-03-03T03:09:59;101779.53;;;14.70;38.47
39435;BME280;66825;51.880;-0.518;2023-03-03T03:12:24;101858.91;;;15.16;38.80
39435;BME280;66825;51.880;-0.518;2023-03-03T03:14:50;101652.75;;;13.92;38.71
39435;BME280;66825;51.880;-0.518;2023-03-03T03:17:16;101843.72;;;15.15;38.81
39435;BME280;66825;51.880;-0.518;2023-03-03T03:19:42;101741.22;;;14.49;38.90
39435;BME280;66825;51.880;-0.518;2023-03-03T03:22:07;101845.00;;;15.13;38.90
39435;BME280;66825;51.880;-0.518;2023-03-03T03:24:33;101839.81;;;15.11;38.87
39435;BME280;66825;51.880;-0.518;2023-03-03T03:26:59;101780.59;;;14.69;38.97
39435;BME280;66825;51.880;-0.518;2023-03-03T03:29:24;101814.38;;;14.95;38.79
39435;BME280;66825;51.880;-0.518;2023-03-03T03:31:50;101817.41;;;14.99;38.92
39435;BME280;66825;51.880;-0.518;2023-03-03T03:34:16;101822.84;;;14.99;38.98
39435;BME280;66825;51.880;-0.518;2023-03-03T03:36:42;101651.63;;;13.88;39.07
39435;BME280;66825;51.880;-0.518;2023-03-03T03:39:07;101736.22;;;14.41;38.90
39435;BME280;66825;51.880;-0.518;2023-03-03T03:41:33;101863.44;;;15.11;38.91
39435;BME280;66825;51.880;-0.518;2023-03-03T03:43:58;101854.16;;;15.06;38.91
39435;BME280;66825;51.880;-0.518;2023-03-03T03:46:24;101872.66;;;15.09;39.10
39435;BME280;66825;51.880;-0.518;2023-03-03T03:48:49;101753.13;;;14.48;39.02
39435;BME280;66825;51.880;-0.518;2023-03-03T03:51:15;101810.69;;;14.84;38.88
39435;BME280;66825;51.880;-0.518;2023-03-03T03:53:40;101852.00;;;15.08;38.99
39435;BME280;66825;51.880;-0.518;2023-03-03T03:56:06;101857.69;;;15.07;38.84
39435;BME280;66825;51.880;-0.518;2023-03-03T03:58:31;101840.19;;;14.98;39.22
39435;BME280;66825;51.880;-0.518;2023-03-03T04:01:05;101846.84;;;15.07;38.96
39435;BME280;66825;51.880;-0.518;2023-03-03T04:03:31;101853.34;;;15.06;39.12
39435;BME280;66825;51.880;-0.518;2023-03-03T04:05:57;101851.69;;;15.05;39.00
39435;BME280;66825;51.880;-0.518;2023-03-03T04:08:22;101743.75;;;14.39;38.85
39435;BME280;66825;51.880;-0.518;2023-03-03T04:10:48;101746.72;;;14.37;38.92
39435;BME280;66825;51.880;-0.518;2023-03-03T04:13:13;101851.94;;;15.03;38.90
39435;BME280;66825;51.880;-0.518;2023-03-03T04:15:39;101851.94;;;15.03;38.90
39435;BME280;66825;51.880;-0.518;2023-03-03T04:18:05;101861.97;;;15.03;38.88
39435;BME280;66825;51.880;-0.518;2023-03-03T04:20:30;101853.00;;;15.02;38.70
39435;BME280;66825;51.880;-0.518;2023-03-03T04:22:56;101787.13;;;14.56;38.90
39435;BME280;66825;51.880;-0.518;2023-03-03T04:25:22;101863.88;;;15.02;39.20
39435;BME280;66825;51.880;-0.518;2023-03-03T04:27:48;101861.91;;;14.98;39.06
39435;BME280;66825;51.880;-0.518;2023-03-03T04:30:14;101859.50;;;15.01;39.10
39435;BME280;66825;51.880;-0.518;2023-03-03T04:32:40;101775.97;;;14.52;39.20
39435;BME280;66825;51.880;-0.518;2023-03-03T04:35:07;101735.22;;;14.30;38.83
39435;BME280;66825;51.880;-0.518;2023-03-03T04:37:32;101730.28;;;14.27;38.93
39435;BME280;66825;51.880;-0.518;2023-03-03T04:39:58;101853.44;;;14.94;38.97
39435;BME280;66825;51.880;-0.518;2023-03-03T04:42:23;101755.94;;;14.36;39.04
39435;BME280;66825;51.880;-0.518;2023-03-03T04:44:49;101849.97;;;14.99;38.91
39435;BME280;66825;51.880;-0.518;2023-03-03T04:47:14;101746.28;;;14.28;38.89
39435;BME280;66825;51.880;-0.518;2023-03-03T04:49:40;101737.34;;;14.28;39.22
39435;BME280;66825;51.880;-0.518;2023-03-03T04:52:05;101855.88;;;14.96;38.98
39435;BME280;66825;51.880;-0.518;2023-03-03T04:54:31;101745.41;;;14.23;38.78
39435;BME280;66825;51.880;-0.518;2023-03-03T04:56:56;101811.25;;;14.69;38.86
39435;BME280;66825;51.880;-0.518;2023-03-03T04:59:22;101855.88;;;14.96;39.01
39435;BME280;66825;51.880;-0.518;2023-03-03T05:01:48;101866.75;;;14.96;39.03
39435;BME280;66825;51.880;-0.518;2023-03-03T05:04:15;101855.22;;;14.88;39.05
39435;BME280;66825;51.880;-0.518;2023-03-03T05:06:41;101868.66;;;14.95;39.26
39435;BME280;66825;51.880;-0.518;2023-03-03T05:09:07;101787.16;;;14.39;38.95
39435;BME280;66825;51.880;-0.518;2023-03-03T05:11:34;101772.94;;;14.32;39.23
39435;BME280;66825;51.880;-0.518;2023-03-03T05:13:59;101874.31;;;14.93;39.02
39435;BME280;66825;51.880;-0.518;2023-03-03T05:16:25;101868.06;;;14.93;39.06
39435;BME280;66825;51.880;-0.518;2023-03-03T05:18:50;101871.84;;;14.92;39.07
39435;BME280;66825;51.880;-0.518;2023-03-03T05:21:16;101803.59;;;14.49;39.25
39435;BME280;66825;51.880;-0.518;2023-03-03T05:23:41;101778.81;;;14.28;38.94
39435;BME280;66825;51.880;-0.518;2023-03-03T05:26:07;101845.78;;;14.74;39.25
39435;BME280;66825;51.880;-0.518;2023-03-03T05:28:32;101851.06;;;14.81;39.16
39435;BME280;66825;51.880;-0.518;2023-03-03T05:30:58;101867.47;;;14.91;38.90
39435;BME280;66825;51.880;-0.518;2023-03-03T05:33:24;101871.75;;;14.87;39.44
39435;BME280;66825;51.880;-0.518;2023-03-03T05:35:56;101852.38;;;14.78;39.17
39435;BME280;66825;51.880;-0.518;2023-03-03T05:38:22;101868.56;;;14.90;39.03
39435;BME280;66825;51.880;-0.518;2023-03-03T05:40:48;101873.16;;;14.89;38.68
39435;BME280;66825;51.880;-0.518;2023-03-03T05:43:14;101866.94;;;14.89;39.28
39435;BME280;66825;51.880;-0.518;2023-03-03T05:45:39;101827.19;;;14.66;38.97
39435;BME280;66825;51.880;-0.518;2023-03-03T05:48:04;101808.75;;;14.51;38.93
39435;BME280;66825;51.880;-0.518;2023-03-03T05:50:31;101836.16;;;14.66;38.92
39435;BME280;66825;51.880;-0.518;2023-03-03T05:52:57;101861.97;;;14.86;39.35
39435;BME280;66825;51.880;-0.518;2023-03-03T05:55:23;101846.69;;;14.80;39.03
39435;BME280;66825;51.880;-0.518;2023-03-03T05:57:48;101784.44;;;14.39;39.14
39435;BME280;66825;51.880;-0.518;2023-03-03T06:00:15;101766.25;;;14.22;39.16
39435;BME280;66825;51.880;-0.518;2023-03-03T06:02:41;101866.34;;;14.87;39.08
39435;BME280;66825;51.880;-0.518;2023-03-03T06:05:07;101869.31;;;14.85;39.22
39435;BME280;66825;51.880;-0.518;2023-03-03T06:07:33;101858.34;;;14.80;39.36
39435;BME280;66825;51.880;-0.518;2023-03-03T06:09:59;101869.31;;;14.85;39.20
39435;BME280;66825;51.880;-0.518;2023-03-03T06:12:24;101726.84;;;13.97;39.10
39435;BME280;66825;51.880;-0.518;2023-03-03T06:14:50;101843.56;;;14.71;38.83
39435;BME280;66825;51.880;-0.518;2023-03-03T06:17:15;101872.25;;;14.84;39.07
39435;BME280;66825;51.880;-0.518;2023-03-03T06:19:40;101826.50;;;14.58;38.90
39435;BME280;66825;51.880;-0.518;2023-03-03T06:22:07;101873.09;;;14.84;38.96
39435;BME280;66825;51.880;-0.518;2023-03-03T06:24:33;101861.84;;;14.75;39.20
39435;BME280;66825;51.880;-0.518;2023-03-03T06:26:59;101880.91;;;14.81;39.31
39435;BME280;66825;51.880;-0.518;2023-03-03T06:29:25;101769.38;;;14.14;39.05
39435;BME280;66825;51.880;-0.518;2023-03-03T06:31:51;101875.22;;;14.82;39.41
39435;BME280;66825;51.880;-0.518;2023-03-03T06:34:16;101745.28;;;14.01;39.15
39435;BME280;66825;51.880;-0.518;2023-03-03T06:36:42;101882.78;;;14.80;38.98
39435;BME280;66825;51.880;-0.518;2023-03-03T06:39:07;101877.13;;;14.82;39.22
39435;BME280;66825;51.880;-0.518;2023-03-03T06:41:33;101881.72;;;14.81;39.19
39435;BME280;66825;51.880;-0.518;2023-03-03T06:43:58;101878.19;;;14.81;39.14
39435;BME280;66825;51.880;-0.518;2023-03-03T06:46:25;101880.06;;;14.80;39.51
39435;BME280;66825;51.880;-0.518;2023-03-03T06:48:51;101874.81;;;14.73;39.03
39435;BME280;66825;51.880;-0.518;2023-03-03T06:51:30;101887.38;;;14.80;39.19
39435;BME280;66825;51.880;-0.518;2023-03-03T06:54:01;101779.72;;;14.17;38.96
39435;BME280;66825;51.880;-0.518;2023-03-03T06:56:27;101902.88;;;14.79;39.25
39435;BME280;66825;51.880;-0.518;2023-03-03T06:58:57;101889.78;;;14.76;39.00
39435;BME280;66825;51.880;-0.518;2023-03-03T07:01:25;101874.38;;;14.65;38.91
39435;BME280;66825;51.880;-0.518;2023-03-03T07:03:51;101892.22;;;14.77;38.98
39435;BME280;66825;51.880;-0.518;2023-03-03T07:06:26;101894.94;;;14.77;39.03
39435;BME280;66825;51.880;-0.518;2023-03-03T07:08:53;101896.00;;;14.76;39.20
39435;BME280;66825;51.880;-0.518;2023-03-03T07:11:21;101895.19;;;14.76;39.37
39435;BME280;66825;51.880;-0.518;2023-03-03T07:13:49;101876.50;;;14.63;39.00
39435;BME280;66825;51.880;-0.518;2023-03-03T07:16:16;101797.13;;;14.04;39.12
39435;BME280;66825;51.880;-0.518;2023-03-03T07:18:53;101913.38;;;14.75;39.14
39435;BME280;66825;51.880;-0.518;2023-03-03T07:21:21;101799.59;;;14.06;39.02
39435;BME280;66825;51.880;-0.518;2023-03-03T07:23:51;101882.91;;;14.56;39.06
39435;BME280;66825;51.880;-0.518;2023-03-03T07:26:23;101796.78;;;14.01;39.49
39435;BME280;66825;51.880;-0.518;2023-03-03T07:31:48;101886.44;;;14.57;39.11
39435;BME280;66825;51.880;-0.518;2023-03-03T07:34:21;101919.63;;;14.76;39.25
39435;BME280;66825;51.880;-0.518;2023-03-03T07:36:53;101936.47;;;14.78;39.20
39435;BME280;66825;51.880;-0.518;2023-03-03T07:39:37;101924.31;;;14.81;39.53
39435;BME280;66825;51.880;-0.518;2023-03-03T07:44:49;101922.84;;;14.90;39.51
39435;BME280;66825;51.880;-0.518;2023-03-03T07:47:25;101888.84;;;14.70;39.55
39435;BME280;66825;51.880;-0.518;2023-03-03T07:49:55;101926.22;;;14.97;39.21
39435;BME280;66825;51.880;-0.518;2023-03-03T07:52:37;101928.28;;;15.07;39.28
39435;BME280;66825;51.880;-0.518;2023-03-03T07:55:42;101933.53;;;15.14;39.49
39435;BME280;66825;51.880;-0.518;2023-03-03T08:03:23;101922.66;;;15.14;39.33
39435;BME280;66825;51.880;-0.518;2023-03-03T08:05:49;101950.16;;;15.34;39.26
39435;BME280;66825;51.880;-0.518;2023-03-03T08:10:52;101952.41;;;15.43;39.02
39435;BME280;66825;51.880;-0.518;2023-03-03T08:13:22;101967.75;;;15.49;38.86
39435;BME280;66825;51.880;-0.518;2023-03-03T08:15:53;101937.13;;;15.36;39.16
39435;BME280;66825;51.880;-0.518;2023-03-03T08:21:04;101944.19;;;15.54;38.84
39435;BME280;66825;51.880;-0.518;2023-03-03T08:23:32;101869.22;;;15.14;38.63
39435;BME280;66825;51.880;-0.518;2023-03-03T08:25:58;101962.50;;;15.81;38.72
39435;BME280;66825;51.880;-0.518;2023-03-03T08:28:23;101955.66;;;15.79;38.78
39435;BME280;66825;51.880;-0.518;2023-03-03T08:30:49;101978.72;;;15.93;38.51
39435;BME280;66825;51.880;-0.518;2023-03-03T08:33:16;101970.38;;;16.00;38.38
39435;BME280;66825;51.880;-0.518;2023-03-03T08:35:42;101961.09;;;15.96;38.85
39435;BME280;66825;51.880;-0.518;2023-03-03T08:38:08;101968.34;;;16.12;38.50
39435;BME280;66825;51.880;-0.518;2023-03-03T08:40:34;101887.53;;;15.63;38.45
39435;BME280;66825;51.880;-0.518;2023-03-03T08:43:00;101970.38;;;16.22;38.55
39435;BME280;66825;51.880;-0.518;2023-03-03T08:45:26;101780.06;;;15.06;38.28
39435;BME280;66825;51.880;-0.518;2023-03-03T08:47:52;101878.38;;;15.69;37.99
39435;BME280;66825;51.880;-0.518;2023-03-03T08:50:18;101972.44;;;16.37;38.18
39435;BME280;66825;51.880;-0.518;2023-03-03T08:52:44;101896.88;;;15.90;38.40
39435;BME280;66825;51.880;-0.518;2023-03-03T08:55:11;101985.06;;;16.48;37.92
39435;BME280;66825;51.880;-0.518;2023-03-03T08:57:36;101859.16;;;15.76;38.46
39435;BME280;66825;51.880;-0.518;2023-03-03T09:00:05;101799.84;;;15.46;38.35
39435;BME280;66825;51.880;-0.518;2023-03-03T09:02:30;101970.00;;;16.63;38.14
39435;BME280;66825;51.880;-0.518;2023-03-03T09:04:56;101880.47;;;16.07;37.90
39435;BME280;66825;51.880;-0.518;2023-03-03T09:07:21;101961.31;;;16.66;37.65
39435;BME280;66825;51.880;-0.518;2023-03-03T09:09:47;101982.66;;;16.79;38.03
39435;BME280;66825;51.880;-0.518;2023-03-03T09:12:18;101974.00;;;16.82;38.02
39435;BME280;66825;51.880;-0.518;2023-03-03T09:14:46;101972.41;;;16.87;38.10
39435;BME280;66825;51.880;-0.518;2023-03-03T09:17:29;101934.06;;;16.61;38.70
39435;BME280;66825;51.880;-0.518;2023-03-03T09:20:15;101966.19;;;16.91;38.27
39435;BME280;66825;51.880;-0.518;2023-03-03T09:22:45;101967.38;;;17.01;38.73
39435;BME280;66825;51.880;-0.518;2023-03-03T09:25:32;101859.31;;;16.41;38.70
39435;BME280;66825;51.880;-0.518;2023-03-03T09:27:59;101981.72;;;17.18;39.03
39435;BME280;66825;51.880;-0.518;2023-03-03T09:30:36;101969.09;;;17.12;38.73
39435;BME280;66825;51.880;-0.518;2023-03-03T09:33:27;101989.38;;;17.26;38.30
39435;BME280;66825;51.880;-0.518;2023-03-03T09:36:03;101965.84;;;17.10;37.87
39435;BME280;66825;51.880;-0.518;2023-03-03T09:38:32;101986.72;;;17.32;38.10
39435;BME280;66825;51.880;-0.518;2023-03-03T09:49:17;101996.38;;;17.50;38.31
39435;BME280;66825;51.880;-0.518;2023-03-03T09:55:02;101996.69;;;17.58;38.24
39435;BME280;66825;51.880;-0.518;2023-03-03T10:06:12;101895.56;;;17.07;37.82
39435;BME280;66825;51.880;-0.518;2023-03-03T10:14:41;102009.16;;;17.92;37.77
39435;BME280;66825;51.880;-0.518;2023-03-03T10:17:52;102012.78;;;17.98;38.17
39435;BME280;66825;51.880;-0.518;2023-03-03T10:20:43;102013.06;;;18.01;37.98
39435;BME280;66825;51.880;-0.518;2023-03-03T10:23:14;101836.13;;;16.93;37.86
39435;BME280;66825;51.880;-0.518;2023-03-03T10:26:04;102020.47;;;18.11;38.21
39435;BME280;66825;51.880;-0.518;2023-03-03T10:40:23;102008.28;;;18.29;38.08
39435;BME280;66825;51.880;-0.518;2023-03-03T10:49:07;102024.13;;;18.37;38.11
39435;BME280;66825;51.880;-0.518;2023-03-03T10:55:41;102022.78;;;18.40;38.02
39435;BME280;66825;51.880;-0.518;2023-03-03T11:00:22;101938.25;;;17.87;38.11
39435;BME280;66825;51.880;-0.518;2023-03-03T11:06:14;102026.59;;;18.44;37.82
39435;BME280;66825;51.880;-0.518;2023-03-03T11:19:35;101931.13;;;17.81;38.12
39435;BME280;66825;51.880;-0.518;2023-03-03T11:28:26;101943.38;;;17.78;37.32
39435;BME280;66825;51.880;-0.518;2023-03-03T11:33:06;102052.22;;;18.38;37.15
39435;BME280;66825;51.880;-0.518;2023-03-03T11:35:43;102040.47;;;18.32;37.58
39435;BME280;66825;51.880;-0.518;2023-03-03T11:38:22;102034.69;;;18.23;37.45
39435;BME280;66825;51.880;-0.518;2023-03-03T11:40:53;102046.22;;;18.36;37.42
39435;BME280;66825;51.880;-0.518;2023-03-03T11:43:21;102047.31;;;18.35;37.44
39435;BME280;66825;51.880;-0.518;2023-03-03T11:45:54;102046.47;;;18.34;37.59
39435;BME280;66825;51.880;-0.518;2023-03-03T11:51:06;102055.22;;;18.31;37.40
39435;BME280;66825;51.880;-0.518;2023-03-03T11:53:38;101960.53;;;17.73;37.22
39435;BME280;66825;51.880;-0.518;2023-03-03T11:56:29;102041.81;;;18.30;37.44
39435;BME280;66825;51.880;-0.518;2023-03-03T11:59:12;102041.00;;;18.29;37.41
39435;BME280;66825;51.880;-0.518;2023-03-03T12:01:59;101951.25;;;17.74;37.47
39435;BME280;66825;51.880;-0.518;2023-03-03T12:04:31;102036.91;;;18.27;37.56
39435;BME280;66825;51.880;-0.518;2023-03-03T12:07:17;102015.31;;;18.15;37.23
39435;BME280;66825;51.880;-0.518;2023-03-03T12:09:54;102041.53;;;18.26;37.36
39435;BME280;66825;51.880;-0.518;2023-03-03T12:12:31;102033.06;;;18.22;37.58
39435;BME280;66825;51.880;-0.518;2023-03-03T12:25:46;102033.34;;;18.26;37.23
39435;BME280;66825;51.880;-0.518;2023-03-03T12:28:21;101947.16;;;17.72;37.18
39435;BME280;66825;51.880;-0.518;2023-03-03T12:33:54;102025.44;;;18.24;37.34
39435;BME280;66825;51.880;-0.518;2023-03-03T12:42:05;102012.06;;;18.23;37.27
39435;BME280;66825;51.880;-0.518;2023-03-03T12:47:15;102009.59;;;18.21;37.29
39435;BME280;66825;51.880;-0.518;2023-03-03T12:49:58;102024.06;;;18.22;37.37
39435;BME280;66825;51.880;-0.518;2023-03-03T13:00:42;102010.94;;;18.19;37.24
39435;BME280;66825;51.880;-0.518;2023-03-03T13:06:04;102019.13;;;18.19;37.27
39435;BME280;66825;51.880;-0.518;2023-03-03T13:08:46;102019.97;;;18.19;37.30
39435;BME280;66825;51.880;-0.518;2023-03-03T13:11:26;102009.31;;;18.18;37.43
39435;BME280;66825;51.880;-0.518;2023-03-03T13:16:38;102004.13;;;18.16;37.35
39435;BME280;66825;51.880;-0.518;2023-03-03T13:19:14;101992.63;;;18.09;37.41
39435;BME280;66825;51.880;-0.518;2023-03-03T13:27:22;101970.25;;;18.02;37.16
39435;BME280;66825;51.880;-0.518;2023-03-03T13:32:35;101998.38;;;18.18;37.44
39435;BME280;66825;51.880;-0.518;2023-03-03T13:35:08;101998.38;;;18.18;37.44
39435;BME280;66825;51.880;-0.518;2023-03-03T13:37:46;101997.31;;;18.19;37.27
39435;BME280;66825;51.880;-0.518;2023-03-03T13:42:40;101979.00;;;18.09;37.71
39435;BME280;66825;51.880;-0.518;2023-03-03T13:50:32;101984.75;;;18.18;37.44
39435;BME280;66825;51.880;-0.518;2023-03-03T13:56:27;101989.41;;;18.17;37.38
39435;BME280;66825;51.880;-0.518;2023-03-03T13:59:18;101978.50;;;18.17;37.50
39435;BME280;66825;51.880;-0.518;2023-03-03T14:02:06;101984.75;;;18.18;37.32
39435;BME280;66825;51.880;-0.518;2023-03-03T14:07:25;101976.56;;;18.18;37.31
39435;BME280;66825;51.880;-0.518;2023-03-03T14:18:38;101899.97;;;17.66;36.88
39435;BME280;66825;51.880;-0.518;2023-03-03T14:21:08;101980.13;;;18.18;37.18
39435;BME280;66825;51.880;-0.518;2023-03-03T14:26:08;101972.22;;;18.17;37.11
39435;BME280;66825;51.880;-0.518;2023-03-03T14:31:39;101970.31;;;18.17;36.85
39435;BME280;66825;51.880;-0.518;2023-03-03T14:36:38;101910.16;;;17.81;37.05
39435;BME280;66825;51.880;-0.518;2023-03-03T14:39:31;101974.94;;;18.17;37.10
39435;BME280;66825;51.880;-0.518;2023-03-03T14:41:57;101973.84;;;18.18;37.31
39435;BME280;66825;51.880;-0.518;2023-03-03T14:44:27;101962.94;;;18.18;37.48
39435;BME280;66825;51.880;-0.518;2023-03-03T14:47:22;101969.22;;;18.18;37.15
39435;BME280;66825;51.880;-0.518;2023-03-03T14:49:49;101978.22;;;18.19;37.55
39435;BME280;66825;51.880;-0.518;2023-03-03T14:54:48;101878.72;;;17.68;37.61
39435;BME280;66825;51.880;-0.518;2023-03-03T14:57:18;101963.50;;;18.25;37.43
39435;BME280;66825;51.880;-0.518;2023-03-03T14:59:57;101860.16;;;17.60;37.22
39435;BME280;66825;51.880;-0.518;2023-03-03T15:02:36;101965.16;;;18.26;37.30
39435;BME280;66825;51.880;-0.518;2023-03-03T15:05:29;101959.69;;;18.26;37.34
39435;BME280;66825;51.880;-0.518;2023-03-03T15:08:14;101952.31;;;18.21;37.38
39435;BME280;66825;51.880;-0.518;2023-03-03T15:10:42;101947.69;;;18.22;37.26
39435;BME280;66825;51.880;-0.518;2023-03-03T15:18:24;101943.88;;;18.28;37.75
39435;BME280;66825;51.880;-0.518;2023-03-03T15:21:03;101952.06;;;18.28;37.43
39435;BME280;66825;51.880;-0.518;2023-03-03T15:23:43;101847.09;;;17.67;37.77
39435;BME280;66825;51.880;-0.518;2023-03-03T15:31:54;101937.63;;;18.28;37.89
39435;BME280;66825;51.880;-0.518;2023-03-03T15:34:30;101934.88;;;18.28;37.58
39435;BME280;66825;51.880;-0.518;2023-03-03T15:39:48;101939.50;;;18.27;37.87
39435;BME280;66825;51.880;-0.518;2023-03-03T15:45:30;101903.47;;;18.09;37.74
39435;BME280;66825;51.880;-0.518;2023-03-03T15:50:56;101919.31;;;18.23;37.63
39435;BME280;66825;51.880;-0.518;2023-03-03T16:01:52;101860.78;;;17.83;38.12
39435;BME280;66825;51.880;-0.518;2023-03-03T16:04:32;101801.56;;;17.52;37.53
39435;BME280;66825;51.880;-0.518;2023-03-03T16:15:33;101914.38;;;18.20;37.70
39435;BME280;66825;51.880;-0.518;2023-03-03T16:20:52;101919.84;;;18.20;37.96
39435;BME280;66825;51.880;-0.518;2023-03-03T16:23:59;101911.66;;;18.20;37.63
39435;BME280;66825;51.880;-0.518;2023-03-03T16:26:42;101911.66;;;18.20;37.66
39435;BME280;66825;51.880;-0.518;2023-03-03T16:39:27;101915.47;;;18.19;37.81
39435;BME280;66825;51.880;-0.518;2023-03-03T16:53:39;101843.56;;;17.67;38.07
39435;BME280;66825;51.880;-0.518;2023-03-03T16:56:13;101835.63;;;17.60;37.90
39435;BME280;66825;51.880;-0.518;2023-03-03T16:59:08;101760.50;;;17.11;37.98
39435;BME280;66825;51.880;-0.518;2023-03-03T17:04:45;101852.56;;;17.62;37.62
39435;BME280;66825;51.880;-0.518;2023-03-03T17:07:21;101957.75;;;18.16;37.68